sensor_id;sensor_type;location;lat;lon;timestamp;temperature;humidity
13052;DHT22;6592;47.484;9.726;2024-02-23T00:02:06;8.20;99.90
13052;DHT22;6592;47.484;9.726;2024-02-23T00:04:34;8.20;99.90
13052;DHT22;6592;47.484;9.726;2024-02-23T00:07:02;8.20;99.90
13052;DHT22;6592;47.484;9.726;2024-02-23T00:09:31;8.20;99.90
13052;DHT22;6592;47.484;9.726;2024-02-23T00:12:00;8.20;99.90
13052;DHT22;6592;47.484;9.726;2024-02-23T00:14:29;8.30;99.90
13052;DHT22;6592;47.484;9.726;2024-02-23T00:16:58;8.30;99.90
13052;DHT22;6592;47.484;9.726;2024-02-23T00:19:30;8.30;99.90
13052;DHT22;6592;47.484;9.726;2024-02-23T00:21:59;8.30;99.90
13052;DHT22;6592;47.484;9.726;2024-02-23T00:24:27;8.30;99.90
13052;DHT22;6592;47.484;9.726;2024-02-23T00:26:55;8.30;99.90
13052;DHT22;6592;47.484;9.726;2024-02-23T00:29:25;8.30;99.90
13052;DHT22;6592;47.484;9.726;2024-02-23T00:31:53;8.30;99.90
13052;DHT22;6592;47.484;9.726;2024-02-23T00:34:22;8.20;99.90
13052;DHT22;6592;47.484;9.726;2024-02-23T00:36:51;8.30;99.90
13052;DHT22;6592;47.484;9.726;2024-02-23T00:39:19;8.30;99.90
13052;DHT22;6592;47.484;9.726;2024-02-23T00:41:47;8.30;99.90
13052;DHT22;6592;47.484;9.726;2024-02-23T00:44:15;8.30;99.90
13052;DHT22;6592;47.484;9.726;2024-02-23T00:46:45;8.30;99.90
13052;DHT22;6592;47.484;9.726;2024-02-23T00:49:13;8.30;99.90
13052;DHT22;6592;47.484;9.726;2024-02-23T00:51:42;8.30;99.90
13052;DHT22;6592;47.484;9.726;2024-02-23T00:54:10;8.30;99.90
13052;DHT22;6592;47.484;9.726;2024-02-23T00:56:39;8.30;99.90
13052;DHT22;6592;47.484;9.726;2024-02-23T00:59:17;8.30;99.90
13052;DHT22;6592;47.484;9.726;2024-02-23T01:01:47;8.30;99.90
13052;DHT22;6592;47.484;9.726;2024-02-23T01:04:15;8.30;99.90
13052;DHT22;6592;47.484;9.726;2024-02-23T01:06:43;8.40;99.90
13052;DHT22;6592;47.484;9.726;2024-02-23T01:09:12;8.40;99.90
13052;DHT22;6592;47.484;9.726;2024-02-23T01:11:40;8.40;99.90
13052;DHT22;6592;47.484;9.726;2024-02-23T01:14:08;8.40;99.90
13052;DHT22;6592;47.484;9.726;2024-02-23T01:16:36;8.40;99.90
13052;DHT22;6592;47.484;9.726;2024-02-23T01:19:06;8.40;99.90
13052;DHT22;6592;47.484;9.726;2024-02-23T01:21:34;8.40;99.90
13052;DHT22;6592;47.484;9.726;2024-02-23T01:24:03;8.40;99.90
13052;DHT22;6592;47.484;9.726;2024-02-23T01:26:32;8.40;99.90
13052;DHT22;6592;47.484;9.726;2024-02-23T01:29:00;8.40;99.90
13052;DHT22;6592;47.484;9.726;2024-02-23T01:31:30;8.40;99.90
13052;DHT22;6592;47.484;9.726;2024-02-23T01:33:58;8.50;99.90
13052;DHT22;6592;47.484;9.726;2024-02-23T01:36:28;8.50;99.90
13052;DHT22;6592;47.484;9.726;2024-02-23T01:38:56;8.50;99.90
13052;DHT22;6592;47.484;9.726;2024-02-23T01:41:24;8.60;99.90
13052;DHT22;6592;47.484;9.726;2024-02-23T01:43:53;8.70;99.90
13052;DHT22;6592;47.484;9.726;2024-02-23T01:46:21;8.80;99.90
13052;DHT22;6592;47.484;9.726;2024-02-23T01:48:50;8.80;99.90
13052;DHT22;6592;47.484;9.726;2024-02-23T01:51:19;8.80;99.90
13052;DHT22;6592;47.484;9.726;2024-02-23T01:53:49;8.80;99.90
13052;DHT22;6592;47.484;9.726;2024-02-23T01:56:17;8.80;99.90
13052;DHT22;6592;47.484;9.726;2024-02-23T01:58:46;8.70;99.90
13052;DHT22;6592;47.484;9.726;2024-02-23T02:01:15;8.80;99.90
13052;DHT22;6592;47.484;9.726;2024-02-23T02:03:43;8.80;99.90
13052;DHT22;6592;47.484;9.726;2024-02-23T02:06:12;8.80;99.90
13052;DHT22;6592;47.484;9.726;2024-02-23T02:08:40;8.70;99.90
13052;DHT22;6592;47.484;9.726;2024-02-23T02:11:10;8.70;99.90
13052;DHT22;6592;47.484;9.726;2024-02-23T02:13:38;8.70;99.90
13052;DHT22;6592;47.484;9.726;2024-02-23T02:16:07;8.70;99.90
13052;DHT22;6592;47.484;9.726;2024-02-23T02:18:35;8.70;99.90
13052;DHT22;6592;47.484;9.726;2024-02-23T02:21:04;8.70;99.90
13052;DHT22;6592;47.484;9.726;2024-02-23T02:23:32;8.70;99.90
13052;DHT22;6592;47.484;9.726;2024-02-23T02:26:00;8.70;99.90
13052;DHT22;6592;47.484;9.726;2024-02-23T02:28:30;8.60;99.90
13052;DHT22;6592;47.484;9.726;2024-02-23T02:30:59;8.60;99.90
13052;DHT22;6592;47.484;9.726;2024-02-23T02:33:27;8.60;99.90
13052;DHT22;6592;47.484;9.726;2024-02-23T02:35:55;8.50;99.90
13052;DHT22;6592;47.484;9.726;2024-02-23T02:38:24;8.40;99.90
13052;DHT22;6592;47.484;9.726;2024-02-23T02:40:52;8.20;99.90
13052;DHT22;6592;47.484;9.726;2024-02-23T02:43:20;8.00;99.90
13052;DHT22;6592;47.484;9.726;2024-02-23T02:45:50;7.80;99.90
13052;DHT22;6592;47.484;9.726;2024-02-23T02:48:18;7.50;99.90
13052;DHT22;6592;47.484;9.726;2024-02-23T02:50:47;7.40;99.90
13052;DHT22;6592;47.484;9.726;2024-02-23T02:53:20;7.30;99.90
13052;DHT22;6592;47.484;9.726;2024-02-23T02:55:48;7.10;99.90
13052;DHT22;6592;47.484;9.726;2024-02-23T02:58:16;6.90;99.90
13052;DHT22;6592;47.484;9.726;2024-02-23T03:00:44;6.70;99.90
13052;DHT22;6592;47.484;9.726;2024-02-23T03:03:14;6.60;99.90
13052;DHT22;6592;47.484;9.726;2024-02-23T03:05:42;6.50;99.90
13052;DHT22;6592;47.484;9.726;2024-02-23T03:08:11;6.40;99.90
13052;DHT22;6592;47.484;9.726;2024-02-23T03:10:39;6.30;99.90
13052;DHT22;6592;47.484;9.726;2024-02-23T03:13:07;6.30;99.90
13052;DHT22;6592;47.484;9.726;2024-02-23T03:15:35;6.30;99.90
13052;DHT22;6592;47.484;9.726;2024-02-23T03:18:04;6.20;99.90
13052;DHT22;6592;47.484;9.726;2024-02-23T03:20:34;6.20;99.90
13052;DHT22;6592;47.484;9.726;2024-02-23T03:23:02;6.10;99.90
13052;DHT22;6592;47.484;9.726;2024-02-23T03:25:31;6.10;99.90
13052;DHT22;6592;47.484;9.726;2024-02-23T03:27:59;6.00;99.90
13052;DHT22;6592;47.484;9.726;2024-02-23T03:30:27;6.00;99.90
13052;DHT22;6592;47.484;9.726;2024-02-23T03:32:55;6.00;99.90
13052;DHT22;6592;47.484;9.726;2024-02-23T03:35:24;6.00;99.90
13052;DHT22;6592;47.484;9.726;2024-02-23T03:37:53;5.90;99.90
13052;DHT22;6592;47.484;9.726;2024-02-23T03:40:21;5.90;99.90
13052;DHT22;6592;47.484;9.726;2024-02-23T03:42:50;6.00;99.90
13052;DHT22;6592;47.484;9.726;2024-02-23T03:45:18;6.00;99.90
13052;DHT22;6592;47.484;9.726;2024-02-23T03:47:46;6.00;99.90
13052;DHT22;6592;47.484;9.726;2024-02-23T03:50:15;6.00;99.90
13052;DHT22;6592;47.484;9.726;2024-02-23T03:52:44;6.00;99.90
13052;DHT22;6592;47.484;9.726;2024-02-23T03:55:13;6.10;99.90
13052;DHT22;6592;47.484;9.726;2024-02-23T03:57:41;6.00;99.90
13052;DHT22;6592;47.484;9.726;2024-02-23T04:00:14;6.00;99.90
13052;DHT22;6592;47.484;9.726;2024-02-23T04:02:42;6.10;99.90
13052;DHT22;6592;47.484;9.726;2024-02-23T04:05:10;6.10;99.90
13052;DHT22;6592;47.484;9.726;2024-02-23T04:07:38;6.10;99.90
13052;DHT22;6592;47.484;9.726;2024-02-23T04:10:07;6.10;99.90
13052;DHT22;6592;47.484;9.726;2024-02-23T04:12:38;6.10;99.90
13052;DHT22;6592;47.484;9.726;2024-02-23T04:15:06;6.20;99.90
13052;DHT22;6592;47.484;9.726;2024-02-23T04:17:34;6.30;99.90
13052;DHT22;6592;47.484;9.726;2024-02-23T04:20:06;6.30;99.90
13052;DHT22;6592;47.484;9.726;2024-02-23T04:22:36;6.30;99.90
13052;DHT22;6592;47.484;9.726;2024-02-23T04:25:04;6.30;99.90
13052;DHT22;6592;47.484;9.726;2024-02-23T04:27:33;6.30;99.90
13052;DHT22;6592;47.484;9.726;2024-02-23T04:30:03;6.30;99.90
13052;DHT22;6592;47.484;9.726;2024-02-23T04:32:31;6.20;99.90
13052;DHT22;6592;47.484;9.726;2024-02-23T04:35:00;6.20;99.90
13052;DHT22;6592;47.484;9.726;2024-02-23T04:37:28;6.20;99.90
13052;DHT22;6592;47.484;9.726;2024-02-23T04:40:01;6.10;99.90
13052;DHT22;6592;47.484;9.726;2024-02-23T04:42:31;6.20;99.90
13052;DHT22;6592;47.484;9.726;2024-02-23T04:44:59;6.20;99.90
13052;DHT22;6592;47.484;9.726;2024-02-23T04:47:29;6.20;99.90
13052;DHT22;6592;47.484;9.726;2024-02-23T04:49:57;6.20;99.90
13052;DHT22;6592;47.484;9.726;2024-02-23T04:52:26;6.20;99.90
13052;DHT22;6592;47.484;9.726;2024-02-23T04:54:54;6.20;99.90
13052;DHT22;6592;47.484;9.726;2024-02-23T04:57:22;6.30;99.90
13052;DHT22;6592;47.484;9.726;2024-02-23T04:59:51;6.40;99.90
13052;DHT22;6592;47.484;9.726;2024-02-23T05:02:19;6.30;99.90
13052;DHT22;6592;47.484;9.726;2024-02-23T05:04:49;6.30;99.90
13052;DHT22;6592;47.484;9.726;2024-02-23T05:07:17;6.40;99.90
13052;DHT22;6592;47.484;9.726;2024-02-23T05:09:45;6.20;99.90
13052;DHT22;6592;47.484;9.726;2024-02-23T05:12:13;6.10;99.90
13052;DHT22;6592;47.484;9.726;2024-02-23T05:14:42;5.90;99.90
13052;DHT22;6592;47.484;9.726;2024-02-23T05:17:10;5.80;99.90
13052;DHT22;6592;47.484;9.726;2024-02-23T05:19:38;5.70;99.90
13052;DHT22;6592;47.484;9.726;2024-02-23T05:22:08;5.60;99.90
13052;DHT22;6592;47.484;9.726;2024-02-23T05:24:36;5.60;99.90
13052;DHT22;6592;47.484;9.726;2024-02-23T05:27:04;5.70;99.90
13052;DHT22;6592;47.484;9.726;2024-02-23T05:29:33;5.70;99.90
13052;DHT22;6592;47.484;9.726;2024-02-23T05:32:01;5.70;99.90
13052;DHT22;6592;47.484;9.726;2024-02-23T05:34:30;5.70;99.90
13052;DHT22;6592;47.484;9.726;2024-02-23T05:36:58;5.70;99.90
13052;DHT22;6592;47.484;9.726;2024-02-23T05:39:28;5.70;99.90
13052;DHT22;6592;47.484;9.726;2024-02-23T05:41:56;5.70;99.90
13052;DHT22;6592;47.484;9.726;2024-02-23T05:44:26;5.70;99.90
13052;DHT22;6592;47.484;9.726;2024-02-23T05:46:55;5.70;99.90
13052;DHT22;6592;47.484;9.726;2024-02-23T05:49:24;5.70;99.90
13052;DHT22;6592;47.484;9.726;2024-02-23T05:51:52;5.70;99.90
13052;DHT22;6592;47.484;9.726;2024-02-23T05:54:22;5.70;99.90
13052;DHT22;6592;47.484;9.726;2024-02-23T05:56:52;5.70;99.90
13052;DHT22;6592;47.484;9.726;2024-02-23T05:59:20;5.70;99.90
13052;DHT22;6592;47.484;9.726;2024-02-23T06:01:48;5.70;99.90
13052;DHT22;6592;47.484;9.726;2024-02-23T06:04:19;5.60;99.90
13052;DHT22;6592;47.484;9.726;2024-02-23T06:06:47;5.60;99.90
13052;DHT22;6592;47.484;9.726;2024-02-23T06:09:15;5.60;99.90
13052;DHT22;6592;47.484;9.726;2024-02-23T06:11:44;5.60;99.90
13052;DHT22;6592;47.484;9.726;2024-02-23T06:14:13;5.70;99.90
13052;DHT22;6592;47.484;9.726;2024-02-23T06:16:42;5.70;99.90
13052;DHT22;6592;47.484;9.726;2024-02-23T06:19:10;5.60;99.90
13052;DHT22;6592;47.484;9.726;2024-02-23T06:21:38;5.60;99.90
13052;DHT22;6592;47.484;9.726;2024-02-23T06:24:07;5.60;99.90
13052;DHT22;6592;47.484;9.726;2024-02-23T06:26:35;5.60;99.90
13052;DHT22;6592;47.484;9.726;2024-02-23T06:29:04;5.60;99.90
13052;DHT22;6592;47.484;9.726;2024-02-23T06:31:34;5.60;99.90
13052;DHT22;6592;47.484;9.726;2024-02-23T06:34:02;5.60;99.90
13052;DHT22;6592;47.484;9.726;2024-02-23T06:36:31;5.60;99.90
13052;DHT22;6592;47.484;9.726;2024-02-23T06:38:59;5.60;99.90
13052;DHT22;6592;47.484;9.726;2024-02-23T06:41:27;5.60;99.90
13052;DHT22;6592;47.484;9.726;2024-02-23T06:43:55;5.60;99.90
13052;DHT22;6592;47.484;9.726;2024-02-23T06:46:24;5.60;99.90
13052;DHT22;6592;47.484;9.726;2024-02-23T06:48:53;5.60;99.90
13052;DHT22;6592;47.484;9.726;2024-02-23T06:51:22;5.70;99.90
13052;DHT22;6592;47.484;9.726;2024-02-23T06:53:51;5.70;99.90
13052;DHT22;6592;47.484;9.726;2024-02-23T06:56:19;5.70;99.90
13052;DHT22;6592;47.484;9.726;2024-02-23T06:58:47;5.70;99.90
13052;DHT22;6592;47.484;9.726;2024-02-23T07:01:15;5.70;99.90
13052;DHT22;6592;47.484;9.726;2024-02-23T07:03:44;5.70;99.90
13052;DHT22;6592;47.484;9.726;2024-02-23T07:06:13;5.60;99.90
13052;DHT22;6592;47.484;9.726;2024-02-23T07:08:45;5.60;99.90
13052;DHT22;6592;47.484;9.726;2024-02-23T07:11:13;5.60;99.90
13052;DHT22;6592;47.484;9.726;2024-02-23T07:13:43;5.60;99.90
13052;DHT22;6592;47.484;9.726;2024-02-23T07:16:11;5.60;99.90
13052;DHT22;6592;47.484;9.726;2024-02-23T07:18:40;5.70;99.90
13052;DHT22;6592;47.484;9.726;2024-02-23T07:21:09;5.70;99.90
13052;DHT22;6592;47.484;9.726;2024-02-23T07:23:39;5.70;99.90
13052;DHT22;6592;47.484;9.726;2024-02-23T07:26:07;5.70;99.90
13052;DHT22;6592;47.484;9.726;2024-02-23T07:28:35;5.80;99.90
13052;DHT22;6592;47.484;9.726;2024-02-23T07:31:03;5.80;99.90
13052;DHT22;6592;47.484;9.726;2024-02-23T07:33:32;5.80;99.90
13052;DHT22;6592;47.484;9.726;2024-02-23T07:36:00;5.90;99.90
13052;DHT22;6592;47.484;9.726;2024-02-23T07:38:29;5.90;99.90
13052;DHT22;6592;47.484;9.726;2024-02-23T07:40:58;5.90;99.90
13052;DHT22;6592;47.484;9.726;2024-02-23T07:43:27;5.80;99.90
13052;DHT22;6592;47.484;9.726;2024-02-23T07:45:56;5.80;99.90
13052;DHT22;6592;47.484;9.726;2024-02-23T07:48:24;5.80;99.90
13052;DHT22;6592;47.484;9.726;2024-02-23T07:50:53;5.80;99.90
13052;DHT22;6592;47.484;9.726;2024-02-23T07:53:21;5.90;99.90
13052;DHT22;6592;47.484;9.726;2024-02-23T07:55:49;5.90;99.90
13052;DHT22;6592;47.484;9.726;2024-02-23T07:58:19;5.90;99.90
13052;DHT22;6592;47.484;9.726;2024-02-23T08:00:48;6.00;99.90
13052;DHT22;6592;47.484;9.726;2024-02-23T08:03:16;6.00;99.90
13052;DHT22;6592;47.484;9.726;2024-02-23T08:05:44;6.10;99.90
13052;DHT22;6592;47.484;9.726;2024-02-23T08:08:13;6.10;99.90
13052;DHT22;6592;47.484;9.726;2024-02-23T08:10:41;6.00;99.90
13052;DHT22;6592;47.484;9.726;2024-02-23T08:13:09;6.00;99.90
13052;DHT22;6592;47.484;9.726;2024-02-23T08:15:39;6.10;99.90
13052;DHT22;6592;47.484;9.726;2024-02-23T08:18:07;6.20;99.90
13052;DHT22;6592;47.484;9.726;2024-02-23T08:20:35;6.20;99.90
13052;DHT22;6592;47.484;9.726;2024-02-23T08:23:04;6.20;99.90
13052;DHT22;6592;47.484;9.726;2024-02-23T08:25:32;6.10;99.90
13052;DHT22;6592;47.484;9.726;2024-02-23T08:28:00;6.10;99.90
13052;DHT22;6592;47.484;9.726;2024-02-23T08:30:29;6.00;99.90
13052;DHT22;6592;47.484;9.726;2024-02-23T08:32:58;5.90;99.90
13052;DHT22;6592;47.484;9.726;2024-02-23T08:35:27;5.90;99.90
13052;DHT22;6592;47.484;9.726;2024-02-23T08:37:55;6.00;99.90
13052;DHT22;6592;47.484;9.726;2024-02-23T08:40:23;5.90;99.90
13052;DHT22;6592;47.484;9.726;2024-02-23T08:42:51;5.90;99.90
13052;DHT22;6592;47.484;9.726;2024-02-23T08:45:20;5.90;99.90
13052;DHT22;6592;47.484;9.726;2024-02-23T08:47:48;5.90;99.90
13052;DHT22;6592;47.484;9.726;2024-02-23T08:50:17;5.80;99.90
13052;DHT22;6592;47.484;9.726;2024-02-23T08:52:46;5.90;99.90
13052;DHT22;6592;47.484;9.726;2024-02-23T08:55:14;6.10;99.90
13052;DHT22;6592;47.484;9.726;2024-02-23T08:57:42;6.10;99.90
13052;DHT22;6592;47.484;9.726;2024-02-23T09:00:12;6.00;99.90
13052;DHT22;6592;47.484;9.726;2024-02-23T09:02:44;6.00;99.90
13052;DHT22;6592;47.484;9.726;2024-02-23T09:05:12;6.10;99.90
13052;DHT22;6592;47.484;9.726;2024-02-23T09:07:42;6.10;99.90
13052;DHT22;6592;47.484;9.726;2024-02-23T09:10:12;6.10;99.90
13052;DHT22;6592;47.484;9.726;2024-02-23T09:12:40;6.10;99.90
13052;DHT22;6592;47.484;9.726;2024-02-23T09:15:09;6.10;99.90
13052;DHT22;6592;47.484;9.726;2024-02-23T09:17:39;6.10;99.90
13052;DHT22;6592;47.484;9.726;2024-02-23T09:20:09;6.20;99.90
13052;DHT22;6592;47.484;9.726;2024-02-23T09:22:37;6.10;99.90
13052;DHT22;6592;47.484;9.726;2024-02-23T09:25:08;6.10;99.90
13052;DHT22;6592;47.484;9.726;2024-02-23T09:27:36;6.10;99.90
13052;DHT22;6592;47.484;9.726;2024-02-23T09:30:11;6.20;99.90
13052;DHT22;6592;47.484;9.726;2024-02-23T09:32:40;6.20;99.90
13052;DHT22;6592;47.484;9.726;2024-02-23T09:35:08;6.30;99.90
13052;DHT22;6592;47.484;9.726;2024-02-23T09:37:37;6.30;99.90
13052;DHT22;6592;47.484;9.726;2024-02-23T09:40:08;6.30;99.90
13052;DHT22;6592;47.484;9.726;2024-02-23T09:42:36;6.20;99.90
13052;DHT22;6592;47.484;9.726;2024-02-23T09:45:07;6.40;99.90
13052;DHT22;6592;47.484;9.726;2024-02-23T09:47:36;6.40;99.90
13052;DHT22;6592;47.484;9.726;2024-02-23T09:50:05;6.40;99.90
13052;DHT22;6592;47.484;9.726;2024-02-23T09:52:34;6.30;99.90
13052;DHT22;6592;47.484;9.726;2024-02-23T09:55:03;6.20;99.90
13052;DHT22;6592;47.484;9.726;2024-02-23T09:57:33;6.20;99.90
13052;DHT22;6592;47.484;9.726;2024-02-23T10:00:02;6.30;99.90
13052;DHT22;6592;47.484;9.726;2024-02-23T10:02:34;6.30;99.90
13052;DHT22;6592;47.484;9.726;2024-02-23T10:05:04;6.40;99.90
13052;DHT22;6592;47.484;9.726;2024-02-23T10:07:33;6.40;99.90
13052;DHT22;6592;47.484;9.726;2024-02-23T10:10:01;6.40;99.90
13052;DHT22;6592;47.484;9.726;2024-02-23T10:12:33;6.50;99.90
13052;DHT22;6592;47.484;9.726;2024-02-23T10:15:02;6.50;99.90
13052;DHT22;6592;47.484;9.726;2024-02-23T10:17:31;6.50;99.90
13052;DHT22;6592;47.484;9.726;2024-02-23T10:20:03;6.60;99.90
13052;DHT22;6592;47.484;9.726;2024-02-23T10:22:32;6.70;99.90
13052;DHT22;6592;47.484;9.726;2024-02-23T10:25:00;6.80;99.90
13052;DHT22;6592;47.484;9.726;2024-02-23T10:27:28;6.80;99.90
13052;DHT22;6592;47.484;9.726;2024-02-23T10:29:58;6.90;99.90
13052;DHT22;6592;47.484;9.726;2024-02-23T10:32:29;7.00;99.90
13052;DHT22;6592;47.484;9.726;2024-02-23T10:35:00;7.00;99.90
13052;DHT22;6592;47.484;9.726;2024-02-23T10:37:31;7.00;99.90
13052;DHT22;6592;47.484;9.726;2024-02-23T10:40:01;7.10;99.90
13052;DHT22;6592;47.484;9.726;2024-02-23T10:42:33;7.20;99.90
13052;DHT22;6592;47.484;9.726;2024-02-23T10:45:06;7.30;99.90
13052;DHT22;6592;47.484;9.726;2024-02-23T10:47:35;7.40;99.90
13052;DHT22;6592;47.484;9.726;2024-02-23T10:50:07;7.40;99.90
13052;DHT22;6592;47.484;9.726;2024-02-23T10:52:35;7.40;99.90
13052;DHT22;6592;47.484;9.726;2024-02-23T10:55:04;7.50;99.90
13052;DHT22;6592;47.484;9.726;2024-02-23T10:57:35;7.50;99.90
13052;DHT22;6592;47.484;9.726;2024-02-23T11:00:08;7.50;99.90
13052;DHT22;6592;47.484;9.726;2024-02-23T11:02:40;7.50;99.90
13052;DHT22;6592;47.484;9.726;2024-02-23T11:05:09;7.70;99.90
13052;DHT22;6592;47.484;9.726;2024-02-23T11:07:39;7.50;99.90
13052;DHT22;6592;47.484;9.726;2024-02-23T11:10:08;7.50;99.90
13052;DHT22;6592;47.484;9.726;2024-02-23T11:12:40;7.60;99.90
13052;DHT22;6592;47.484;9.726;2024-02-23T11:15:26;7.70;99.90
13052;DHT22;6592;47.484;9.726;2024-02-23T11:17:54;7.70;99.90
13052;DHT22;6592;47.484;9.726;2024-02-23T11:20:23;7.70;99.90
13052;DHT22;6592;47.484;9.726;2024-02-23T11:22:56;7.80;99.90
13052;DHT22;6592;47.484;9.726;2024-02-23T11:25:27;7.70;99.90
13052;DHT22;6592;47.484;9.726;2024-02-23T11:27:55;7.70;99.90
13052;DHT22;6592;47.484;9.726;2024-02-23T11:30:26;7.70;99.90
13052;DHT22;6592;47.484;9.726;2024-02-23T11:32:59;7.60;99.90
13052;DHT22;6592;47.484;9.726;2024-02-23T11:35:28;7.50;99.90
13052;DHT22;6592;47.484;9.726;2024-02-23T11:37:57;7.50;99.90
13052;DHT22;6592;47.484;9.726;2024-02-23T11:40:27;7.50;99.90
13052;DHT22;6592;47.484;9.726;2024-02-23T11:42:55;7.50;99.90
13052;DHT22;6592;47.484;9.726;2024-02-23T11:45:25;7.50;99.90
13052;DHT22;6592;47.484;9.726;2024-02-23T11:47:53;7.50;99.90
13052;DHT22;6592;47.484;9.726;2024-02-23T11:50:21;7.50;99.90
13052;DHT22;6592;47.484;9.726;2024-02-23T11:52:50;7.50;99.90
13052;DHT22;6592;47.484;9.726;2024-02-23T11:55:19;7.50;99.90
13052;DHT22;6592;47.484;9.726;2024-02-23T11:57:50;7.40;99.90
13052;DHT22;6592;47.484;9.726;2024-02-23T12:00:32;7.40;99.90
13052;DHT22;6592;47.484;9.726;2024-02-23T12:03:02;7.40;99.90
13052;DHT22;6592;47.484;9.726;2024-02-23T12:05:32;7.50;99.90
13052;DHT22;6592;47.484;9.726;2024-02-23T12:08:01;7.50;99.90
13052;DHT22;6592;47.484;9.726;2024-02-23T12:10:30;7.50;99.90
13052;DHT22;6592;47.484;9.726;2024-02-23T12:12:58;7.50;99.90
13052;DHT22;6592;47.484;9.726;2024-02-23T12:15:27;7.50;99.90
13052;DHT22;6592;47.484;9.726;2024-02-23T12:17:59;7.30;99.90
13052;DHT22;6592;47.484;9.726;2024-02-23T12:20:28;7.30;99.90
13052;DHT22;6592;47.484;9.726;2024-02-23T12:22:56;7.20;99.90
13052;DHT22;6592;47.484;9.726;2024-02-23T12:25:24;7.30;99.90
13052;DHT22;6592;47.484;9.726;2024-02-23T12:27:56;7.30;99.90
13052;DHT22;6592;47.484;9.726;2024-02-23T12:30:25;7.30;99.90
13052;DHT22;6592;47.484;9.726;2024-02-23T12:33:04;7.20;99.90
13052;DHT22;6592;47.484;9.726;2024-02-23T12:35:34;7.10;99.90
13052;DHT22;6592;47.484;9.726;2024-02-23T12:38:03;7.10;99.90
13052;DHT22;6592;47.484;9.726;2024-02-23T12:40:31;7.10;99.90
13052;DHT22;6592;47.484;9.726;2024-02-23T12:43:00;7.10;99.90
13052;DHT22;6592;47.484;9.726;2024-02-23T12:45:28;7.10;99.90
13052;DHT22;6592;47.484;9.726;2024-02-23T12:47:56;7.00;99.90
13052;DHT22;6592;47.484;9.726;2024-02-23T12:50:30;7.00;99.90
13052;DHT22;6592;47.484;9.726;2024-02-23T12:52:58;7.00;99.90
13052;DHT22;6592;47.484;9.726;2024-02-23T12:55:27;7.00;99.90
13052;DHT22;6592;47.484;9.726;2024-02-23T12:57:56;7.10;99.90
13052;DHT22;6592;47.484;9.726;2024-02-23T13:00:24;7.10;99.90
13052;DHT22;6592;47.484;9.726;2024-02-23T13:02:52;7.10;99.90
13052;DHT22;6592;47.484;9.726;2024-02-23T13:05:20;7.20;99.90
13052;DHT22;6592;47.484;9.726;2024-02-23T13:07:50;7.30;99.90
13052;DHT22;6592;47.484;9.726;2024-02-23T13:10:18;7.40;99.90
13052;DHT22;6592;47.484;9.726;2024-02-23T13:12:47;7.50;99.90
13052;DHT22;6592;47.484;9.726;2024-02-23T13:15:16;7.40;99.90
13052;DHT22;6592;47.484;9.726;2024-02-23T13:17:47;7.40;99.90
13052;DHT22;6592;47.484;9.726;2024-02-23T13:20:16;7.40;99.90
13052;DHT22;6592;47.484;9.726;2024-02-23T13:22:46;7.40;99.90
13052;DHT22;6592;47.484;9.726;2024-02-23T13:25:15;7.40;99.90
13052;DHT22;6592;47.484;9.726;2024-02-23T13:27:43;7.50;99.90
13052;DHT22;6592;47.484;9.726;2024-02-23T13:30:13;7.60;99.90
13052;DHT22;6592;47.484;9.726;2024-02-23T13:32:41;7.60;99.90
13052;DHT22;6592;47.484;9.726;2024-02-23T13:35:09;7.50;99.90
13052;DHT22;6592;47.484;9.726;2024-02-23T13:37:38;7.50;99.90
13052;DHT22;6592;47.484;9.726;2024-02-23T13:40:07;7.50;99.90
13052;DHT22;6592;47.484;9.726;2024-02-23T13:42:38;7.40;99.90
13052;DHT22;6592;47.484;9.726;2024-02-23T13:45:07;7.40;99.90
13052;DHT22;6592;47.484;9.726;2024-02-23T13:47:36;7.40;99.90
13052;DHT22;6592;47.484;9.726;2024-02-23T13:50:05;7.30;99.90
13052;DHT22;6592;47.484;9.726;2024-02-23T13:52:33;7.40;99.90
13052;DHT22;6592;47.484;9.726;2024-02-23T13:55:01;7.40;99.90
13052;DHT22;6592;47.484;9.726;2024-02-23T13:57:30;7.40;99.90
13052;DHT22;6592;47.484;9.726;2024-02-23T14:00:01;7.40;99.90
13052;DHT22;6592;47.484;9.726;2024-02-23T14:02:30;7.40;99.90
13052;DHT22;6592;47.484;9.726;2024-02-23T14:05:01;7.40;99.90
13052;DHT22;6592;47.484;9.726;2024-02-23T14:07:33;7.40;99.90
13052;DHT22;6592;47.484;9.726;2024-02-23T14:10:02;7.50;99.90
13052;DHT22;6592;47.484;9.726;2024-02-23T14:12:31;7.50;99.90
13052;DHT22;6592;47.484;9.726;2024-02-23T14:15:00;7.50;99.90
13052;DHT22;6592;47.484;9.726;2024-02-23T14:17:29;7.50;99.90
13052;DHT22;6592;47.484;9.726;2024-02-23T14:19:57;7.50;99.90
13052;DHT22;6592;47.484;9.726;2024-02-23T14:22:25;7.40;99.90
13052;DHT22;6592;47.484;9.726;2024-02-23T14:24:54;7.40;99.90
13052;DHT22;6592;47.484;9.726;2024-02-23T14:27:23;7.40;99.90
13052;DHT22;6592;47.484;9.726;2024-02-23T14:29:56;7.30;99.90
13052;DHT22;6592;47.484;9.726;2024-02-23T14:32:25;7.30;99.90
13052;DHT22;6592;47.484;9.726;2024-02-23T14:34:54;7.40;99.90
13052;DHT22;6592;47.484;9.726;2024-02-23T14:37:24;7.30;99.90
13052;DHT22;6592;47.484;9.726;2024-02-23T14:39:52;7.30;99.90
13052;DHT22;6592;47.484;9.726;2024-02-23T14:42:21;7.40;99.90
13052;DHT22;6592;47.484;9.726;2024-02-23T14:44:49;7.30;99.90
13052;DHT22;6592;47.484;9.726;2024-02-23T14:47:18;7.30;99.90
13052;DHT22;6592;47.484;9.726;2024-02-23T14:49:56;7.30;99.90
13052;DHT22;6592;47.484;9.726;2024-02-23T14:52:25;7.30;99.90
13052;DHT22;6592;47.484;9.726;2024-02-23T14:54:53;7.20;99.90
13052;DHT22;6592;47.484;9.726;2024-02-23T14:57:21;7.20;99.90
13052;DHT22;6592;47.484;9.726;2024-02-23T14:59:49;7.20;99.90
13052;DHT22;6592;47.484;9.726;2024-02-23T15:02:20;7.20;99.90
13052;DHT22;6592;47.484;9.726;2024-02-23T15:04:48;7.10;99.90
13052;DHT22;6592;47.484;9.726;2024-02-23T15:07:18;7.10;99.90
13052;DHT22;6592;47.484;9.726;2024-02-23T15:09:46;7.10;99.90
13052;DHT22;6592;47.484;9.726;2024-02-23T15:12:15;7.10;99.90
13052;DHT22;6592;47.484;9.726;2024-02-23T15:14:43;7.20;99.90
13052;DHT22;6592;47.484;9.726;2024-02-23T15:17:11;7.20;99.90
13052;DHT22;6592;47.484;9.726;2024-02-23T15:19:40;7.20;99.90
13052;DHT22;6592;47.484;9.726;2024-02-23T15:22:08;7.20;99.90
13052;DHT22;6592;47.484;9.726;2024-02-23T15:24:42;7.10;99.90
13052;DHT22;6592;47.484;9.726;2024-02-23T15:27:12;7.10;99.90
13052;DHT22;6592;47.484;9.726;2024-02-23T15:29:40;7.10;99.90
13052;DHT22;6592;47.484;9.726;2024-02-23T15:32:09;7.10;99.90
13052;DHT22;6592;47.484;9.726;2024-02-23T15:34:37;7.10;99.90
13052;DHT22;6592;47.484;9.726;2024-02-23T15:37:05;7.10;99.90
13052;DHT22;6592;47.484;9.726;2024-02-23T15:39:34;7.20;99.90
13052;DHT22;6592;47.484;9.726;2024-02-23T15:42:04;7.10;99.90
13052;DHT22;6592;47.484;9.726;2024-02-23T15:44:33;7.10;99.90
13052;DHT22;6592;47.484;9.726;2024-02-23T15:47:01;7.10;99.90
13052;DHT22;6592;47.484;9.726;2024-02-23T15:49:29;7.00;99.90
13052;DHT22;6592;47.484;9.726;2024-02-23T15:52:18;7.00;99.90
13052;DHT22;6592;47.484;9.726;2024-02-23T15:54:46;6.90;99.90
13052;DHT22;6592;47.484;9.726;2024-02-23T15:57:16;6.90;99.90
13052;DHT22;6592;47.484;9.726;2024-02-23T15:59:44;6.90;99.90
13052;DHT22;6592;47.484;9.726;2024-02-23T16:02:13;6.90;99.90
13052;DHT22;6592;47.484;9.726;2024-02-23T16:04:41;6.80;99.90
13052;DHT22;6592;47.484;9.726;2024-02-23T16:07:09;6.80;99.90
13052;DHT22;6592;47.484;9.726;2024-02-23T16:09:38;6.70;99.90
13052;DHT22;6592;47.484;9.726;2024-02-23T16:12:07;6.70;99.90
13052;DHT22;6592;47.484;9.726;2024-02-23T16:14:38;6.70;99.90